sensor_id;sensor_type;location;lat;lon;timestamp;temperature;humidity
38380;DHT22;38377;47.418;18.882;2023-05-10T00:01:38;10.70;99.90
38380;DHT22;38377;47.418;18.882;2023-05-10T00:04:03;10.70;99.90
38380;DHT22;38377;47.418;18.882;2023-05-10T00:06:29;10.70;99.90
38380;DHT22;38377;47.418;18.882;2023-05-10T00:08:55;10.60;99.90
38380;DHT22;38377;47.418;18.882;2023-05-10T00:11:21;10.60;99.90
38380;DHT22;38377;47.418;18.882;2023-05-10T00:13:47;10.50;99.90
38380;DHT22;38377;47.418;18.882;2023-05-10T00:16:12;10.50;99.90
38380;DHT22;38377;47.418;18.882;2023-05-10T00:18:39;10.50;99.90
38380;DHT22;38377;47.418;18.882;2023-05-10T00:21:05;10.40;99.90
38380;DHT22;38377;47.418;18.882;2023-05-10T00:23:31;10.30;99.90
38380;DHT22;38377;47.418;18.882;2023-05-10T00:25:57;10.30;99.90
38380;DHT22;38377;47.418;18.882;2023-05-10T00:28:23;10.30;99.90
38380;DHT22;38377;47.418;18.882;2023-05-10T00:30:48;10.20;99.90
38380;DHT22;38377;47.418;18.882;2023-05-10T00:33:14;10.20;99.90
38380;DHT22;38377;47.418;18.882;2023-05-10T00:35:40;10.10;99.90
38380;DHT22;38377;47.418;18.882;2023-05-10T00:38:05;10.00;99.90
38380;DHT22;38377;47.418;18.882;2023-05-10T00:40:31;10.00;99.90
38380;DHT22;38377;47.418;18.882;2023-05-10T00:42:57;10.00;99.90
38380;DHT22;38377;47.418;18.882;2023-05-10T00:45:24;10.00;99.90
38380;DHT22;38377;47.418;18.882;2023-05-10T00:47:51;9.90;99.90
38380;DHT22;38377;47.418;18.882;2023-05-10T00:50:20;10.00;99.90
38380;DHT22;38377;47.418;18.882;2023-05-10T00:52:47;9.90;99.90
38380;DHT22;38377;47.418;18.882;2023-05-10T00:55:13;9.90;99.90
38380;DHT22;38377;47.418;18.882;2023-05-10T00:57:39;9.90;99.90
38380;DHT22;38377;47.418;18.882;2023-05-10T01:00:05;9.90;99.90
38380;DHT22;38377;47.418;18.882;2023-05-10T01:02:33;9.90;99.90
38380;DHT22;38377;47.418;18.882;2023-05-10T01:05:00;9.90;99.90
38380;DHT22;38377;47.418;18.882;2023-05-10T01:07:26;9.90;99.90
38380;DHT22;38377;47.418;18.882;2023-05-10T01:09:52;9.90;99.90
38380;DHT22;38377;47.418;18.882;2023-05-10T01:12:18;10.00;99.90
38380;DHT22;38377;47.418;18.882;2023-05-10T01:14:44;10.00;99.90
38380;DHT22;38377;47.418;18.882;2023-05-10T01:17:10;10.00;99.90
38380;DHT22;38377;47.418;18.882;2023-05-10T01:19:37;10.00;99.90
38380;DHT22;38377;47.418;18.882;2023-05-10T01:32:58;9.80;99.90
38380;DHT22;38377;47.418;18.882;2023-05-10T01:38:29;9.80;99.90
38380;DHT22;38377;47.418;18.882;2023-05-10T01:41:50;9.90;99.90
38380;DHT22;38377;47.418;18.882;2023-05-10T01:44:18;9.80;99.90
38380;DHT22;38377;47.418;18.882;2023-05-10T01:46:51;9.80;99.90
38380;DHT22;38377;47.418;18.882;2023-05-10T01:49:31;9.70;99.90
38380;DHT22;38377;47.418;18.882;2023-05-10T01:52:06;9.60;99.90
38380;DHT22;38377;47.418;18.882;2023-05-10T01:54:33;9.60;99.90
38380;DHT22;38377;47.418;18.882;2023-05-10T01:57:03;9.60;99.90
38380;DHT22;38377;47.418;18.882;2023-05-10T01:59:35;9.60;99.90
38380;DHT22;38377;47.418;18.882;2023-05-10T02:02:02;9.50;99.90
38380;DHT22;38377;47.418;18.882;2023-05-10T02:04:30;9.50;99.90
38380;DHT22;38377;47.418;18.882;2023-05-10T02:06:57;9.50;99.90
38380;DHT22;38377;47.418;18.882;2023-05-10T02:09:24;9.50;99.90
38380;DHT22;38377;47.418;18.882;2023-05-10T02:11:51;9.50;99.90
38380;DHT22;38377;47.418;18.882;2023-05-10T02:14:18;9.50;99.90
38380;DHT22;38377;47.418;18.882;2023-05-10T02:16:46;9.60;99.90
38380;DHT22;38377;47.418;18.882;2023-05-10T02:19:13;9.60;99.90
38380;DHT22;38377;47.418;18.882;2023-05-10T02:21:41;9.60;99.90
38380;DHT22;38377;47.418;18.882;2023-05-10T02:24:08;9.50;99.90
38380;DHT22;38377;47.418;18.882;2023-05-10T02:26:35;9.60;99.90
38380;DHT22;38377;47.418;18.882;2023-05-10T02:29:05;9.60;99.90
38380;DHT22;38377;47.418;18.882;2023-05-10T02:31:33;9.60;99.90
38380;DHT22;38377;47.418;18.882;2023-05-10T02:33:59;9.70;99.90
38380;DHT22;38377;47.418;18.882;2023-05-10T02:36:27;9.70;99.90
38380;DHT22;38377;47.418;18.882;2023-05-10T02:38:53;9.70;99.90
38380;DHT22;38377;47.418;18.882;2023-05-10T02:41:21;9.80;99.90
38380;DHT22;38377;47.418;18.882;2023-05-10T02:43:50;9.80;99.90
38380;DHT22;38377;47.418;18.882;2023-05-10T02:46:17;9.90;99.90
38380;DHT22;38377;47.418;18.882;2023-05-10T02:48:43;10.00;99.90
38380;DHT22;38377;47.418;18.882;2023-05-10T02:51:10;10.00;99.90
38380;DHT22;38377;47.418;18.882;2023-05-10T02:53:38;10.00;99.90
38380;DHT22;38377;47.418;18.882;2023-05-10T02:56:13;10.00;99.90
38380;DHT22;38377;47.418;18.882;2023-05-10T02:58:39;9.90;99.90
38380;DHT22;38377;47.418;18.882;2023-05-10T03:01:05;9.90;99.90
38380;DHT22;38377;47.418;18.882;2023-05-10T03:03:33;9.90;99.90
38380;DHT22;38377;47.418;18.882;2023-05-10T03:05:58;9.80;99.90
38380;DHT22;38377;47.418;18.882;2023-05-10T03:08:24;9.80;99.90
38380;DHT22;38377;47.418;18.882;2023-05-10T03:13:33;9.80;99.90
38380;DHT22;38377;47.418;18.882;2023-05-10T03:16:12;9.70;99.90
38380;DHT22;38377;47.418;18.882;2023-05-10T03:21:29;9.70;99.90
38380;DHT22;38377;47.418;18.882;2023-05-10T03:24:02;9.70;99.90
38380;DHT22;38377;47.418;18.882;2023-05-10T03:26:29;9.70;99.90
38380;DHT22;38377;47.418;18.882;2023-05-10T03:28:56;9.70;99.90
38380;DHT22;38377;47.418;18.882;2023-05-10T03:31:24;9.70;99.90
38380;DHT22;38377;47.418;18.882;2023-05-10T03:33:51;9.70;99.90
38380;DHT22;38377;47.418;18.882;2023-05-10T03:36:17;9.70;99.90
38380;DHT22;38377;47.418;18.882;2023-05-10T03:38:43;9.70;99.90
38380;DHT22;38377;47.418;18.882;2023-05-10T03:41:09;9.70;99.90
38380;DHT22;38377;47.418;18.882;2023-05-10T03:43:35;9.80;99.90
38380;DHT22;38377;47.418;18.882;2023-05-10T03:46:04;9.80;99.90
38380;DHT22;38377;47.418;18.882;2023-05-10T03:48:31;9.70;99.90
38380;DHT22;38377;47.418;18.882;2023-05-10T03:50:57;9.80;99.90
38380;DHT22;38377;47.418;18.882;2023-05-10T03:53:22;9.80;99.90
38380;DHT22;38377;47.418;18.882;2023-05-10T03:55:48;9.80;99.90
38380;DHT22;38377;47.418;18.882;2023-05-10T03:58:14;9.80;99.90
38380;DHT22;38377;47.418;18.882;2023-05-10T04:00:40;9.80;99.90
38380;DHT22;38377;47.418;18.882;2023-05-10T04:03:11;9.80;99.90
38380;DHT22;38377;47.418;18.882;2023-05-10T04:05:37;9.80;99.90
38380;DHT22;38377;47.418;18.882;2023-05-10T04:08:03;9.80;99.90
38380;DHT22;38377;47.418;18.882;2023-05-10T04:10:29;9.80;99.90
38380;DHT22;38377;47.418;18.882;2023-05-10T04:12:55;10.00;99.90
38380;DHT22;38377;47.418;18.882;2023-05-10T04:15:20;10.50;99.90
38380;DHT22;38377;47.418;18.882;2023-05-10T04:17:46;11.00;99.90
38380;DHT22;38377;47.418;18.882;2023-05-10T04:20:12;11.30;99.90
38380;DHT22;38377;47.418;18.882;2023-05-10T04:22:38;11.10;99.90
38380;DHT22;38377;47.418;18.882;2023-05-10T04:25:05;10.90;99.90
38380;DHT22;38377;47.418;18.882;2023-05-10T04:27:30;10.80;99.90
38380;DHT22;38377;47.418;18.882;2023-05-10T04:29:56;10.90;99.90
38380;DHT22;38377;47.418;18.882;2023-05-10T04:32:22;11.20;99.90
38380;DHT22;38377;47.418;18.882;2023-05-10T04:34:48;11.70;99.90
38380;DHT22;38377;47.418;18.882;2023-05-10T04:37:14;11.80;99.90
38380;DHT22;38377;47.418;18.882;2023-05-10T04:39:39;11.90;99.90
38380;DHT22;38377;47.418;18.882;2023-05-10T04:42:05;11.90;99.90
38380;DHT22;38377;47.418;18.882;2023-05-10T04:44:34;12.00;99.90
38380;DHT22;38377;47.418;18.882;2023-05-10T04:47:00;12.00;99.90
38380;DHT22;38377;47.418;18.882;2023-05-10T04:49:27;11.80;99.90
38380;DHT22;38377;47.418;18.882;2023-05-10T04:51:53;11.50;99.90
38380;DHT22;38377;47.418;18.882;2023-05-10T04:54:19;11.50;99.90
38380;DHT22;38377;47.418;18.882;2023-05-10T04:56:45;11.40;99.90
38380;DHT22;38377;47.418;18.882;2023-05-10T04:59:11;11.40;99.90
38380;DHT22;38377;47.418;18.882;2023-05-10T05:01:36;11.50;99.90
38380;DHT22;38377;47.418;18.882;2023-05-10T05:04:02;11.70;99.90
38380;DHT22;38377;47.418;18.882;2023-05-10T05:06:28;12.40;99.90
38380;DHT22;38377;47.418;18.882;2023-05-10T05:08:53;12.90;99.90
38380;DHT22;38377;47.418;18.882;2023-05-10T05:11:19;13.10;99.90
38380;DHT22;38377;47.418;18.882;2023-05-10T05:13:46;13.00;99.90
38380;DHT22;38377;47.418;18.882;2023-05-10T05:16:12;13.00;99.90
38380;DHT22;38377;47.418;18.882;2023-05-10T05:18:37;12.70;99.90
38380;DHT22;38377;47.418;18.882;2023-05-10T05:21:03;12.60;99.90
38380;DHT22;38377;47.418;18.882;2023-05-10T05:23:38;12.60;99.90
38380;DHT22;38377;47.418;18.882;2023-05-10T05:26:04;12.90;99.90
38380;DHT22;38377;47.418;18.882;2023-05-10T05:28:29;13.10;99.90
38380;DHT22;38377;47.418;18.882;2023-05-10T05:30:58;13.30;99.90
38380;DHT22;38377;47.418;18.882;2023-05-10T05:33:23;13.60;99.90
38380;DHT22;38377;47.418;18.882;2023-05-10T05:35:49;14.10;99.90
38380;DHT22;38377;47.418;18.882;2023-05-10T05:38:16;14.50;99.90
38380;DHT22;38377;47.418;18.882;2023-05-10T05:40:42;14.70;99.40
38380;DHT22;38377;47.418;18.882;2023-05-10T05:43:08;14.70;98.90
38380;DHT22;38377;47.418;18.882;2023-05-10T05:45:34;14.50;99.20
38380;DHT22;38377;47.418;18.882;2023-05-10T05:47:59;14.50;99.80
38380;DHT22;38377;47.418;18.882;2023-05-10T05:50:25;14.40;99.00
38380;DHT22;38377;47.418;18.882;2023-05-10T05:52:51;14.20;99.00
38380;DHT22;38377;47.418;18.882;2023-05-10T05:55:16;14.00;99.50
38380;DHT22;38377;47.418;18.882;2023-05-10T05:57:42;13.90;99.80
38380;DHT22;38377;47.418;18.882;2023-05-10T06:00:08;13.80;99.60
38380;DHT22;38377;47.418;18.882;2023-05-10T06:02:34;13.60;99.70
38380;DHT22;38377;47.418;18.882;2023-05-10T06:04:59;13.60;99.80
38380;DHT22;38377;47.418;18.882;2023-05-10T06:07:25;13.70;99.50
38380;DHT22;38377;47.418;18.882;2023-05-10T06:09:52;13.80;98.90
38380;DHT22;38377;47.418;18.882;2023-05-10T06:12:18;13.70;99.10
38380;DHT22;38377;47.418;18.882;2023-05-10T06:14:43;13.60;99.40
38380;DHT22;38377;47.418;18.882;2023-05-10T06:17:09;13.70;99.50
38380;DHT22;38377;47.418;18.882;2023-05-10T06:19:35;13.80;99.50
38380;DHT22;38377;47.418;18.882;2023-05-10T06:22:01;14.00;99.80
38380;DHT22;38377;47.418;18.882;2023-05-10T06:24:26;14.00;98.80
38380;DHT22;38377;47.418;18.882;2023-05-10T06:26:52;14.00;98.20
38380;DHT22;38377;47.418;18.882;2023-05-10T06:29:18;14.00;98.00
38380;DHT22;38377;47.418;18.882;2023-05-10T06:31:44;14.10;97.90
38380;DHT22;38377;47.418;18.882;2023-05-10T06:34:09;14.20;98.60
38380;DHT22;38377;47.418;18.882;2023-05-10T06:36:37;14.10;98.20
38380;DHT22;38377;47.418;18.882;2023-05-10T06:39:02;14.00;97.40
38380;DHT22;38377;47.418;18.882;2023-05-10T06:41:28;13.90;98.60
38380;DHT22;38377;47.418;18.882;2023-05-10T06:43:54;14.10;98.20
38380;DHT22;38377;47.418;18.882;2023-05-10T06:46:20;14.40;98.70
38380;DHT22;38377;47.418;18.882;2023-05-10T06:48:45;14.40;97.40
38380;DHT22;38377;47.418;18.882;2023-05-10T06:51:11;14.60;96.90
38380;DHT22;38377;47.418;18.882;2023-05-10T06:53:37;14.70;96.50
38380;DHT22;38377;47.418;18.882;2023-05-10T06:56:02;14.70;96.60
38380;DHT22;38377;47.418;18.882;2023-05-10T06:58:28;14.70;96.20
38380;DHT22;38377;47.418;18.882;2023-05-10T07:00:54;15.00;96.40
38380;DHT22;38377;47.418;18.882;2023-05-10T07:03:19;15.10;95.40
38380;DHT22;38377;47.418;18.882;2023-05-10T07:05:45;15.20;95.20
38380;DHT22;38377;47.418;18.882;2023-05-10T07:08:11;15.00;95.10
38380;DHT22;38377;47.418;18.882;2023-05-10T07:10:36;15.00;95.50
38380;DHT22;38377;47.418;18.882;2023-05-10T07:13:02;15.10;95.40
38380;DHT22;38377;47.418;18.882;2023-05-10T07:15:28;15.40;95.40
38380;DHT22;38377;47.418;18.882;2023-05-10T07:17:54;15.50;94.70
38380;DHT22;38377;47.418;18.882;2023-05-10T07:20:19;15.80;95.30
38380;DHT22;38377;47.418;18.882;2023-05-10T07:22:45;15.70;95.70
38380;DHT22;38377;47.418;18.882;2023-05-10T07:25:11;15.80;94.30
38380;DHT22;38377;47.418;18.882;2023-05-10T07:27:36;16.00;94.30
38380;DHT22;38377;47.418;18.882;2023-05-10T07:30:02;16.30;94.10
38380;DHT22;38377;47.418;18.882;2023-05-10T07:32:28;16.70;92.80
38380;DHT22;38377;47.418;18.882;2023-05-10T07:34:53;16.50;92.00
38380;DHT22;38377;47.418;18.882;2023-05-10T07:37:19;16.10;93.20
38380;DHT22;38377;47.418;18.882;2023-05-10T07:39:45;15.70;93.10
38380;DHT22;38377;47.418;18.882;2023-05-10T07:42:10;15.40;92.70
38380;DHT22;38377;47.418;18.882;2023-05-10T07:44:36;15.50;93.20
38380;DHT22;38377;47.418;18.882;2023-05-10T07:47:02;15.80;92.30
38380;DHT22;38377;47.418;18.882;2023-05-10T07:49:28;15.80;92.80
38380;DHT22;38377;47.418;18.882;2023-05-10T07:51:54;15.70;91.80
38380;DHT22;38377;47.418;18.882;2023-05-10T07:54:19;15.70;93.20
38380;DHT22;38377;47.418;18.882;2023-05-10T07:56:45;15.70;93.30
38380;DHT22;38377;47.418;18.882;2023-05-10T07:59:15;15.40;92.80
38380;DHT22;38377;47.418;18.882;2023-05-10T08:01:42;15.30;92.70
38380;DHT22;38377;47.418;18.882;2023-05-10T08:04:08;15.30;93.50
38380;DHT22;38377;47.418;18.882;2023-05-10T08:06:34;15.90;92.50
38380;DHT22;38377;47.418;18.882;2023-05-10T08:09:00;16.40;91.80
38380;DHT22;38377;47.418;18.882;2023-05-10T08:11:26;16.60;90.50
38380;DHT22;38377;47.418;18.882;2023-05-10T08:13:53;16.10;90.90
38380;DHT22;38377;47.418;18.882;2023-05-10T08:16:19;16.40;92.00
38380;DHT22;38377;47.418;18.882;2023-05-10T08:18:46;16.60;90.60
38380;DHT22;38377;47.418;18.882;2023-05-10T08:21:12;16.80;90.70
38380;DHT22;38377;47.418;18.882;2023-05-10T08:23:38;17.20;90.00
38380;DHT22;38377;47.418;18.882;2023-05-10T08:26:04;17.70;90.40
38380;DHT22;38377;47.418;18.882;2023-05-10T08:28:30;18.10;87.30
38380;DHT22;38377;47.418;18.882;2023-05-10T08:30:56;17.90;89.20
38380;DHT22;38377;47.418;18.882;2023-05-10T08:33:22;17.50;89.40
38380;DHT22;38377;47.418;18.882;2023-05-10T08:35:48;17.20;90.00
38380;DHT22;38377;47.418;18.882;2023-05-10T08:38:13;17.10;88.50
38380;DHT22;38377;47.418;18.882;2023-05-10T08:40:42;17.40;90.30
38380;DHT22;38377;47.418;18.882;2023-05-10T08:43:10;17.40;87.50
38380;DHT22;38377;47.418;18.882;2023-05-10T08:45:41;17.50;88.30
38380;DHT22;38377;47.418;18.882;2023-05-10T08:48:09;17.60;86.90
38380;DHT22;38377;47.418;18.882;2023-05-10T08:50:41;17.70;85.60
38380;DHT22;38377;47.418;18.882;2023-05-10T08:53:12;17.80;83.50
38380;DHT22;38377;47.418;18.882;2023-05-10T08:55:39;18.10;82.80
38380;DHT22;38377;47.418;18.882;2023-05-10T08:58:08;17.70;81.60
38380;DHT22;38377;47.418;18.882;2023-05-10T09:00:34;17.50;81.20
38380;DHT22;38377;47.418;18.882;2023-05-10T09:03:03;17.60;86.00
38380;DHT22;38377;47.418;18.882;2023-05-10T09:05:29;17.80;81.40
38380;DHT22;38377;47.418;18.882;2023-05-10T09:07:55;18.00;81.20
38380;DHT22;38377;47.418;18.882;2023-05-10T09:10:21;18.30;82.20
38380;DHT22;38377;47.418;18.882;2023-05-10T09:12:48;17.90;79.70
38380;DHT22;38377;47.418;18.882;2023-05-10T09:15:17;17.70;83.40
38380;DHT22;38377;47.418;18.882;2023-05-10T09:17:45;17.70;81.40
38380;DHT22;38377;47.418;18.882;2023-05-10T09:20:11;17.40;81.30
38380;DHT22;38377;47.418;18.882;2023-05-10T09:22:36;17.60;83.40
38380;DHT22;38377;47.418;18.882;2023-05-10T09:25:14;17.50;83.10
38380;DHT22;38377;47.418;18.882;2023-05-10T09:27:41;17.00;81.90
38380;DHT22;38377;47.418;18.882;2023-05-10T09:30:08;16.70;83.60
38380;DHT22;38377;47.418;18.882;2023-05-10T09:32:37;16.70;84.20
38380;DHT22;38377;47.418;18.882;2023-05-10T09:35:14;16.90;84.50
38380;DHT22;38377;47.418;18.882;2023-05-10T09:37:42;17.00;84.80
38380;DHT22;38377;47.418;18.882;2023-05-10T09:40:14;17.20;82.40
38380;DHT22;38377;47.418;18.882;2023-05-10T09:42:42;17.10;82.40
38380;DHT22;38377;47.418;18.882;2023-05-10T09:45:15;17.00;83.20
38380;DHT22;38377;47.418;18.882;2023-05-10T09:47:41;17.00;83.40
38380;DHT22;38377;47.418;18.882;2023-05-10T09:50:07;17.20;83.40
38380;DHT22;38377;47.418;18.882;2023-05-10T09:52:53;17.20;81.60
38380;DHT22;38377;47.418;18.882;2023-05-10T09:55:22;17.00;80.90
38380;DHT22;38377;47.418;18.882;2023-05-10T09:57:49;17.20;84.30
38380;DHT22;38377;47.418;18.882;2023-05-10T10:00:23;17.90;83.10
38380;DHT22;38377;47.418;18.882;2023-05-10T10:02:57;18.50;80.90
38380;DHT22;38377;47.418;18.882;2023-05-10T10:05:33;19.00;79.90
38380;DHT22;38377;47.418;18.882;2023-05-10T10:08:00;18.90;77.40
38380;DHT22;38377;47.418;18.882;2023-05-10T10:10:27;19.00;78.70
38380;DHT22;38377;47.418;18.882;2023-05-10T10:12:54;19.20;78.00
38380;DHT22;38377;47.418;18.882;2023-05-10T10:15:24;19.30;75.80
38380;DHT22;38377;47.418;18.882;2023-05-10T10:17:51;18.50;76.60
38380;DHT22;38377;47.418;18.882;2023-05-10T10:20:18;18.20;77.30
38380;DHT22;38377;47.418;18.882;2023-05-10T10:22:43;18.50;78.10
38380;DHT22;38377;47.418;18.882;2023-05-10T10:25:11;18.00;78.80
38380;DHT22;38377;47.418;18.882;2023-05-10T10:36:00;18.20;80.30
38380;DHT22;38377;47.418;18.882;2023-05-10T10:38:36;18.00;80.70
38380;DHT22;38377;47.418;18.882;2023-05-10T10:41:11;18.10;80.90
38380;DHT22;38377;47.418;18.882;2023-05-10T10:57:27;18.10;75.80
38380;DHT22;38377;47.418;18.882;2023-05-10T11:02:57;18.70;75.20
38380;DHT22;38377;47.418;18.882;2023-05-10T11:08:06;18.90;74.80
38380;DHT22;38377;47.418;18.882;2023-05-10T11:10:32;19.20;74.10
38380;DHT22;38377;47.418;18.882;2023-05-10T11:13:09;19.50;73.80
38380;DHT22;38377;47.418;18.882;2023-05-10T11:15:39;19.70;71.30
38380;DHT22;38377;47.418;18.882;2023-05-10T11:18:19;19.10;71.50
38380;DHT22;38377;47.418;18.882;2023-05-10T11:21:00;18.50;72.40
38380;DHT22;38377;47.418;18.882;2023-05-10T11:23:32;18.30;74.10
38380;DHT22;38377;47.418;18.882;2023-05-10T11:25:59;18.20;76.60
38380;DHT22;38377;47.418;18.882;2023-05-10T11:28:26;18.40;77.30
38380;DHT22;38377;47.418;18.882;2023-05-10T11:30:53;18.50;74.60
38380;DHT22;38377;47.418;18.882;2023-05-10T11:33:19;18.90;76.90
38380;DHT22;38377;47.418;18.882;2023-05-10T11:35:45;19.40;74.60
38380;DHT22;38377;47.418;18.882;2023-05-10T11:38:12;20.00;72.80
38380;DHT22;38377;47.418;18.882;2023-05-10T11:40:39;20.30;70.40
38380;DHT22;38377;47.418;18.882;2023-05-10T11:43:05;19.90;71.10
38380;DHT22;38377;47.418;18.882;2023-05-10T11:45:33;19.60;71.50
38380;DHT22;38377;47.418;18.882;2023-05-10T11:47:59;19.70;71.40
38380;DHT22;38377;47.418;18.882;2023-05-10T11:50:26;19.40;71.20
38380;DHT22;38377;47.418;18.882;2023-05-10T11:52:56;19.00;70.50
38380;DHT22;38377;47.418;18.882;2023-05-10T11:55:22;18.70;71.70
38380;DHT22;38377;47.418;18.882;2023-05-10T11:57:52;18.70;73.40
38380;DHT22;38377;47.418;18.882;2023-05-10T12:00:18;18.80;73.00
38380;DHT22;38377;47.418;18.882;2023-05-10T12:02:43;19.00;71.40
38380;DHT22;38377;47.418;18.882;2023-05-10T12:05:10;18.80;71.90
38380;DHT22;38377;47.418;18.882;2023-05-10T12:07:36;18.60;73.90
38380;DHT22;38377;47.418;18.882;2023-05-10T12:10:11;18.30;71.60
38380;DHT22;38377;47.418;18.882;2023-05-10T12:12:45;18.20;72.40
38380;DHT22;38377;47.418;18.882;2023-05-10T12:15:22;18.40;71.00
38380;DHT22;38377;47.418;18.882;2023-05-10T12:17:49;18.20;71.60
38380;DHT22;38377;47.418;18.882;2023-05-10T12:20:20;18.00;73.00
38380;DHT22;38377;47.418;18.882;2023-05-10T12:22:54;17.90;72.10
38380;DHT22;38377;47.418;18.882;2023-05-10T12:25:22;18.00;72.80
38380;DHT22;38377;47.418;18.882;2023-05-10T12:27:53;18.00;75.00
38380;DHT22;38377;47.418;18.882;2023-05-10T12:30:20;18.00;73.30
38380;DHT22;38377;47.418;18.882;2023-05-10T12:32:46;18.00;71.60
38380;DHT22;38377;47.418;18.882;2023-05-10T12:35:12;18.10;72.20
38380;DHT22;38377;47.418;18.882;2023-05-10T12:37:37;18.00;72.70
38380;DHT22;38377;47.418;18.882;2023-05-10T12:40:08;18.00;73.80
38380;DHT22;38377;47.418;18.882;2023-05-10T12:42:35;18.00;72.30
38380;DHT22;38377;47.418;18.882;2023-05-10T12:45:02;18.00;73.40
38380;DHT22;38377;47.418;18.882;2023-05-10T12:47:29;18.40;73.40
38380;DHT22;38377;47.418;18.882;2023-05-10T12:49:54;18.90;73.60
38380;DHT22;38377;47.418;18.882;2023-05-10T12:52:20;19.30;70.70
38380;DHT22;38377;47.418;18.882;2023-05-10T12:54:46;19.50;69.80
38380;DHT22;38377;47.418;18.882;2023-05-10T12:57:13;19.40;69.70
38380;DHT22;38377;47.418;18.882;2023-05-10T12:59:38;19.60;68.60
38380;DHT22;38377;47.418;18.882;2023-05-10T13:02:04;19.80;68.30
38380;DHT22;38377;47.418;18.882;2023-05-10T13:04:30;19.90;64.90
38380;DHT22;38377;47.418;18.882;2023-05-10T13:06:56;20.10;63.80
38380;DHT22;38377;47.418;18.882;2023-05-10T13:09:24;19.90;66.00
38380;DHT22;38377;47.418;18.882;2023-05-10T13:11:50;19.90;66.10
38380;DHT22;38377;47.418;18.882;2023-05-10T13:14:16;19.90;66.00
38380;DHT22;38377;47.418;18.882;2023-05-10T13:16:42;19.90;67.50
38380;DHT22;38377;47.418;18.882;2023-05-10T13:19:07;19.80;68.80
38380;DHT22;38377;47.418;18.882;2023-05-10T13:21:33;19.40;67.50
38380;DHT22;38377;47.418;18.882;2023-05-10T13:23:59;19.20;70.10
38380;DHT22;38377;47.418;18.882;2023-05-10T13:26:25;19.10;67.10
38380;DHT22;38377;47.418;18.882;2023-05-10T13:28:51;19.10;67.70
38380;DHT22;38377;47.418;18.882;2023-05-10T13:31:17;19.20;70.30
38380;DHT22;38377;47.418;18.882;2023-05-10T13:33:43;19.30;71.80
38380;DHT22;38377;47.418;18.882;2023-05-10T13:36:08;19.30;65.50
38380;DHT22;38377;47.418;18.882;2023-05-10T13:38:34;19.40;62.80
38380;DHT22;38377;47.418;18.882;2023-05-10T13:41:00;19.30;63.50
38380;DHT22;38377;47.418;18.882;2023-05-10T13:43:25;19.30;62.30
38380;DHT22;38377;47.418;18.882;2023-05-10T13:45:51;19.40;66.30
38380;DHT22;38377;47.418;18.882;2023-05-10T13:48:17;19.30;66.90
38380;DHT22;38377;47.418;18.882;2023-05-10T13:50:43;19.20;68.20
38380;DHT22;38377;47.418;18.882;2023-05-10T13:53:08;19.50;67.10
38380;DHT22;38377;47.418;18.882;2023-05-10T13:55:34;19.80;66.80
38380;DHT22;38377;47.418;18.882;2023-05-10T13:58:00;20.10;65.30
38380;DHT22;38377;47.418;18.882;2023-05-10T14:00:26;20.30;65.70
38380;DHT22;38377;47.418;18.882;2023-05-10T14:02:53;20.40;63.40
38380;DHT22;38377;47.418;18.882;2023-05-10T14:05:19;20.50;64.20
38380;DHT22;38377;47.418;18.882;2023-05-10T14:07:44;20.20;64.30
38380;DHT22;38377;47.418;18.882;2023-05-10T14:10:10;19.80;65.00
38380;DHT22;38377;47.418;18.882;2023-05-10T14:12:36;19.30;63.60
38380;DHT22;38377;47.418;18.882;2023-05-10T14:15:01;18.90;64.60
38380;DHT22;38377;47.418;18.882;2023-05-10T14:17:27;18.60;64.60
38380;DHT22;38377;47.418;18.882;2023-05-10T14:19:53;18.40;65.00
38380;DHT22;38377;47.418;18.882;2023-05-10T14:22:19;18.40;64.10
38380;DHT22;38377;47.418;18.882;2023-05-10T14:24:45;18.30;64.10
38380;DHT22;38377;47.418;18.882;2023-05-10T14:27:12;18.30;66.10
38380;DHT22;38377;47.418;18.882;2023-05-10T14:29:38;18.30;65.60
38380;DHT22;38377;47.418;18.882;2023-05-10T14:32:04;18.50;65.80
38380;DHT22;38377;47.418;18.882;2023-05-10T14:34:29;18.60;65.00
38380;DHT22;38377;47.418;18.882;2023-05-10T14:36:55;18.70;65.40
38380;DHT22;38377;47.418;18.882;2023-05-10T14:39:21;18.90;64.20
38380;DHT22;38377;47.418;18.882;2023-05-10T14:41:48;19.00;62.50
38380;DHT22;38377;47.418;18.882;2023-05-10T14:44:14;18.90;61.00
38380;DHT22;38377;47.418;18.882;2023-05-10T14:46:40;18.90;61.20
38380;DHT22;38377;47.418;18.882;2023-05-10T14:49:07;19.10;62.00
38380;DHT22;38377;47.418;18.882;2023-05-10T14:51:33;19.30;59.70
38380;DHT22;38377;47.418;18.882;2023-05-10T14:53:59;19.30;60.10
38380;DHT22;38377;47.418;18.882;2023-05-10T14:56:24;19.10;61.40
38380;DHT22;38377;47.418;18.882;2023-05-10T14:58:51;19.10;61.20
38380;DHT22;38377;47.418;18.882;2023-05-10T15:01:17;19.00;61.30
38380;DHT22;38377;47.418;18.882;2023-05-10T15:03:42;19.10;60.60
38380;DHT22;38377;47.418;18.882;2023-05-10T15:06:08;18.90;61.20
38380;DHT22;38377;47.418;18.882;2023-05-10T15:08:34;18.80;62.00
38380;DHT22;38377;47.418;18.882;2023-05-10T15:11:00;18.70;62.20
38380;DHT22;38377;47.418;18.882;2023-05-10T15:13:25;18.80;64.20
38380;DHT22;38377;47.418;18.882;2023-05-10T15:15:51;19.10;61.90
38380;DHT22;38377;47.418;18.882;2023-05-10T15:18:17;19.10;61.60
38380;DHT22;38377;47.418;18.882;2023-05-10T15:20:45;19.10;61.30
38380;DHT22;38377;47.418;18.882;2023-05-10T15:23:11;19.20;61.80
38380;DHT22;38377;47.418;18.882;2023-05-10T15:25:37;19.20;63.40
38380;DHT22;38377;47.418;18.882;2023-05-10T15:28:03;19.10;63.10
38380;DHT22;38377;47.418;18.882;2023-05-10T15:30:29;19.10;65.00
38380;DHT22;38377;47.418;18.882;2023-05-10T15:32:55;19.10;65.20
38380;DHT22;38377;47.418;18.882;2023-05-10T15:35:21;19.10;64.20
38380;DHT22;38377;47.418;18.882;2023-05-10T15:37:48;19.00;64.50
38380;DHT22;38377;47.418;18.882;2023-05-10T15:40:14;18.90;64.50
38380;DHT22;38377;47.418;18.882;2023-05-10T15:42:40;18.70;64.80
38380;DHT22;38377;47.418;18.882;2023-05-10T15:45:06;18.60;64.30
38380;DHT22;38377;47.418;18.882;2023-05-10T15:47:32;18.60;65.00
38380;DHT22;38377;47.418;18.882;2023-05-10T15:49:58;18.50;64.70
38380;DHT22;38377;47.418;18.882;2023-05-10T15:52:24;18.30;65.70
38380;DHT22;38377;47.418;18.882;2023-05-10T15:54:50;18.20;66.30
38380;DHT22;38377;47.418;18.882;2023-05-10T15:57:16;18.00;65.90
38380;DHT22;38377;47.418;18.882;2023-05-10T15:59:41;17.80;65.30
38380;DHT22;38377;47.418;18.882;2023-05-10T16:02:08;17.80;65.60
38380;DHT22;38377;47.418;18.882;2023-05-10T16:04:36;17.80;65.50